2/7/06
Time         Wind Dir   Wind Spd   Humidity       Temp  Raw Barom   Tot Rain Wind Chill  Dew Point  DailyRain
                            mph          %         C         mb         mm         C         C         mm
12:00am            31          7         63       24.0       1020    2304.29       24.0       16.5       0.00
12:15am            21          4         64       23.8       1020    2304.29       23.8       16.6       0.00
12:30am            40          5         64       23.7       1020    2304.29       23.7       16.5       0.00
12:45am            25          5         65       23.6       1020    2304.29       23.6       16.7       0.00
1:00am             28          8         65       23.5       1020    2304.29       23.5       16.5       0.00
1:15am             29          3         65       23.4       1020    2304.29       23.4       16.4       0.00
1:30am             27          6         65       23.2       1020    2304.29       23.2       16.3       0.00
1:45am             43          5         66       23.2       1020    2304.29       23.2       16.5       0.00
2:00am              8          4         66       23.1       1020    2304.29       23.1       16.4       0.00
2:15am             32          5         67       23.0       1020    2304.29       23.0       16.5       0.00
2:30am             19          6         67       22.8       1020    2304.29       22.8       16.4       0.00
2:45am             15          2         68       22.7       1020    2304.29       22.7       16.5       0.00
3:00am             28          1         68       22.7       1020    2304.29       22.7       16.5       0.00
3:15am             18          3         68       22.5       1020    2304.29       22.5       16.3       0.00
3:30am             20          5         67       22.4       1020    2304.29       22.4       16.0       0.00
3:45am             28          3         66       22.3       1020    2304.29       22.3       15.7       0.00
4:00am             19          6         65       22.3       1020    2304.29       22.3       15.4       0.00
4:15am             33          3         64       22.2       1020    2304.29       22.2       15.0       0.00
4:30am              6          2         64       22.1       1020    2304.29       22.1       15.0       0.00
4:45am             12          3         63       22.1       1020    2304.29       22.1       14.7       0.00
5:00am             15          1         63       22.1       1020    2304.29       22.1       14.7       0.00
5:15am            353          0         63       22.2       1020    2304.29       22.2       14.8       0.00
5:30am            345          0         63       22.1       1020    2304.29       22.1       14.7       0.00
5:45am              6          2         62       22.5       1020    2304.29       22.5       14.9       0.00
6:00am             20          1         59       23.5       1020    2304.29       23.5       15.0       0.00
6:15am             27          2         58       23.8       1020    2304.29       23.8       15.1       0.00
6:30am             10          4         59       23.7       1020    2304.29       23.7       15.2       0.00
6:45am             22          1         59       23.6       1020    2304.29       23.6       15.1       0.00
7:00am             22          1         60       23.7       1020    2304.29       23.7       15.5       0.00
7:15am             47          2         59       24.2       1020    2304.29       24.2       15.7       0.00
7:30am             73          2         56       25.3       1020    2304.29       25.3       15.9       0.00
7:45am             84          5         54       25.8       1020    2304.29       25.8       15.8       0.00
8:00am             76          2         55       25.8       1020    2304.29       25.8       16.1       0.00
8:15am             76          6         58       25.3       1020    2304.29       25.3       16.5       0.00
8:30am             86          6         59       25.3       1020    2304.29       25.3       16.7       0.00
8:45am             87          8         57       25.8       1020    2304.29       25.8       16.7       0.00
9:00am             92          5         56       26.3       1020    2304.29       26.3       16.8       0.00
9:15am             97          5         55       26.8       1020    2304.29       26.8       17.0       0.00
9:30am             88          4         55       27.0       1020    2304.29       27.0       17.2       0.00
9:45am            100          7         54       27.1       1020    2304.29       27.1       17.0       0.00
10:00am           101          6         54       27.3       1020    2304.29       27.3       17.2       0.00
10:15am            84          7         56       26.7       1020    2304.29       26.7       17.2       0.00
10:30am            97         10         57       26.3       1020    2304.29       26.3       17.1       0.00
10:45am           105          6         57       26.7       1020    2304.29       26.7       17.5       0.00
11:00am            99          9         55       26.9       1020    2304.29       26.9       17.1       0.00
11:15am           108          4         54       27.3       1020    2304.29       27.3       17.2       0.00
11:30am            92          7         54       27.3       1020    2304.29       27.3       17.2       0.00
11:45am            89          9         53       27.2       1020    2304.29       27.2       16.8       0.00
12:00pm           101          7         54       27.0       1020    2304.29       27.0       16.9       0.00
12:15pm           103         12         52       27.3       1020    2304.29       27.3       16.6       0.00
12:30pm            97          9         52       27.2       1020    2304.29       27.2       16.5       0.00
12:45pm            96          6         53       27.2       1020    2304.29       27.2       16.8       0.00
1:00pm             91          9         53       27.5       1020    2304.29       27.5       17.1       0.00
1:15pm            125          4         53       27.7       1020    2304.29       27.7       17.3       0.00
1:30pm            103          6         50       28.2       1020    2304.29       28.2       16.8       0.00
1:45pm            110          8         51       28.3       1020    2304.29       28.3       17.2       0.00
2:00pm            108          5         52       28.2       1020    2304.29       28.2       17.4       0.00
2:15pm            118          3         51       28.5       1019    2304.29       28.5       17.4       0.00
2:30pm            112          4         50       28.6       1019    2304.29       28.6       17.2       0.00
2:45pm             94          6         49       28.6       1019    2304.29       28.6       16.8       0.00
3:00pm            101          6         50       28.7       1019    2304.29       28.7       17.3       0.00
3:15pm             98          5         50       28.8       1019    2304.29       28.8       17.4       0.00
3:30pm             90          3         48       28.9       1019    2304.29       28.9       16.8       0.00
3:45pm            102          6         47       29.1       1019    2304.29       29.1       16.7       0.00
4:00pm            104          6         48       29.2       1018    2304.29       29.2       17.1       0.00
4:15pm             98          9         46       29.7       1018    2304.29       29.7       16.9       0.00
4:30pm             90          7         45       29.5       1018    2304.29       29.5       16.3       0.00
4:45pm            117          9         48       29.4       1018    2304.29       29.4       17.3       0.00
5:00pm             98          6         46       29.8       1018    2304.29       29.8       16.9       0.00
5:15pm            107          6         48       29.6       1018    2304.29       29.6       17.4       0.00
5:30pm            113          6         47       29.3       1018    2304.29       29.3       16.9       0.00
5:45pm             92          5         47       28.9       1018    2304.29       28.9       16.5       0.00
6:00pm            100          6         49       28.4       1018    2304.29       28.4       16.7       0.00
6:15pm            102          5         53       27.8       1018    2304.29       27.8       17.4       0.00
6:30pm             88          4         54       27.3       1018    2304.29       27.3       17.2       0.00
6:45pm            100          5         54       27.4       1018    2304.29       27.4       17.3       0.00
7:00pm             87          4         58       26.7       1018    2304.29       26.7       17.8       0.00
7:15pm             85          3         58       26.6       1018    2304.29       26.6       17.7       0.00
7:30pm             79          3         56       26.6       1018    2304.29       26.6       17.1       0.00
7:45pm             88          7         56       26.8       1018    2304.29       26.8       17.3       0.00
8:00pm             78          5         55       27.0       1018    2304.29       27.0       17.2       0.00
8:15pm             73          0         53       27.5       1018    2304.29       27.5       17.1       0.00
8:30pm             72          3         56       26.8       1018    2304.29       26.8       17.3       0.00
8:45pm             43          8         53       26.5       1018    2304.29       26.5       16.2       0.00
9:00pm             38          4         52       26.6       1018    2304.29       26.6       15.9       0.00
9:15pm            356          4         55       25.9       1018    2304.29       25.9       16.2       0.00
9:30pm             18          8         56       25.4       1018    2304.29       25.4       16.0       0.00
9:45pm             12          7         57       25.1       1018    2304.29       25.1       16.0       0.00
10:00pm            37          8         55       24.9       1018    2304.29       24.9       15.3       0.00
10:15pm            15          7         57       24.7       1018    2304.29       24.7       15.6       0.00
10:30pm            24          6         58       24.4       1018    2304.29       24.4       15.7       0.00
10:45pm            15         12         59       24.2       1018    2304.29       24.2       15.7       0.00
11:00pm            13         12         59       24.1       1018    2304.29       24.1       15.6       0.00
11:15pm            10         12         58       23.9       1018    2304.29       23.9       15.1       0.00
11:30pm            12         10         58       23.7       1018    2304.29       23.7       14.9       0.00
11:45pm             2         16         58       23.3       1018    2304.29       23.3       14.6       0.00

 

  0.00